sensor_id;sensor_type;location;lat;lon;timestamp;P1;durP1;ratioP1;P2;durP2;ratioP2
44720;SDS011;30450;52.534;13.398;2023-03-07T00:02:21;12.93;;;8.23;;
44720;SDS011;30450;52.534;13.398;2023-03-07T00:04:47;11.85;;;8.85;;
44720;SDS011;30450;52.534;13.398;2023-03-07T00:07:13;12.10;;;8.55;;
44720;SDS011;30450;52.534;13.398;2023-03-07T00:09:39;12.45;;;8.95;;
44720;SDS011;30450;52.534;13.398;2023-03-07T00:12:05;14.95;;;9.05;;
44720;SDS011;30450;52.534;13.398;2023-03-07T00:14:31;10.27;;;7.70;;
44720;SDS011;30450;52.534;13.398;2023-03-07T00:16:57;15.88;;;10.07;;
44720;SDS011;30450;52.534;13.398;2023-03-07T00:19:23;12.73;;;8.90;;
44720;SDS011;30450;52.534;13.398;2023-03-07T00:21:49;15.00;;;9.30;;
44720;SDS011;30450;52.534;13.398;2023-03-07T00:24:15;11.88;;;8.60;;
44720;SDS011;30450;52.534;13.398;2023-03-07T00:26:41;14.07;;;9.93;;
44720;SDS011;30450;52.534;13.398;2023-03-07T00:29:07;13.13;;;9.57;;
44720;SDS011;30450;52.534;13.398;2023-03-07T00:31:33;13.95;;;9.63;;
44720;SDS011;30450;52.534;13.398;2023-03-07T00:33:59;15.93;;;9.85;;
44720;SDS011;30450;52.534;13.398;2023-03-07T00:36:25;14.43;;;10.27;;
44720;SDS011;30450;52.534;13.398;2023-03-07T00:38:51;19.25;;;11.18;;
44720;SDS011;30450;52.534;13.398;2023-03-07T00:41:21;15.88;;;11.02;;
44720;SDS011;30450;52.534;13.398;2023-03-07T00:43:47;18.63;;;11.32;;
44720;SDS011;30450;52.534;13.398;2023-03-07T00:46:14;16.38;;;11.75;;
44720;SDS011;30450;52.534;13.398;2023-03-07T00:48:40;16.67;;;10.15;;
44720;SDS011;30450;52.534;13.398;2023-03-07T00:51:08;17.70;;;12.73;;
44720;SDS011;30450;52.534;13.398;2023-03-07T00:53:35;16.95;;;11.07;;
44720;SDS011;30450;52.534;13.398;2023-03-07T00:56:05;22.42;;;12.77;;
44720;SDS011;30450;52.534;13.398;2023-03-07T00:58:32;19.95;;;12.73;;
44720;SDS011;30450;52.534;13.398;2023-03-07T01:00:58;21.33;;;13.50;;
44720;SDS011;30450;52.534;13.398;2023-03-07T01:03:24;17.88;;;12.55;;
44720;SDS011;30450;52.534;13.398;2023-03-07T01:05:50;18.20;;;12.63;;
44720;SDS011;30450;52.534;13.398;2023-03-07T01:08:16;17.35;;;12.20;;
44720;SDS011;30450;52.534;13.398;2023-03-07T01:10:42;19.50;;;12.20;;
44720;SDS011;30450;52.534;13.398;2023-03-07T01:13:08;20.45;;;11.93;;
44720;SDS011;30450;52.534;13.398;2023-03-07T01:15:35;21.20;;;13.25;;
44720;SDS011;30450;52.534;13.398;2023-03-07T01:18:01;22.42;;;13.90;;
44720;SDS011;30450;52.534;13.398;2023-03-07T01:20:29;18.05;;;12.30;;
44720;SDS011;30450;52.534;13.398;2023-03-07T01:22:54;17.98;;;11.95;;
44720;SDS011;30450;52.534;13.398;2023-03-07T01:25:20;23.02;;;13.57;;
44720;SDS011;30450;52.534;13.398;2023-03-07T01:27:45;21.63;;;13.10;;
44720;SDS011;30450;52.534;13.398;2023-03-07T01:30:11;22.40;;;14.20;;
44720;SDS011;30450;52.534;13.398;2023-03-07T01:32:37;19.90;;;13.13;;
44720;SDS011;30450;52.534;13.398;2023-03-07T01:35:03;24.48;;;14.07;;
44720;SDS011;30450;52.534;13.398;2023-03-07T01:37:29;21.80;;;14.40;;
44720;SDS011;30450;52.534;13.398;2023-03-07T01:39:55;24.23;;;14.93;;
44720;SDS011;30450;52.534;13.398;2023-03-07T01:42:21;27.23;;;16.80;;
44720;SDS011;30450;52.534;13.398;2023-03-07T01:49:50;31.95;;;18.27;;
44720;SDS011;30450;52.534;13.398;2023-03-07T01:52:17;23.45;;;15.20;;
44720;SDS011;30450;52.534;13.398;2023-03-07T01:54:46;33.22;;;19.77;;
44720;SDS011;30450;52.534;13.398;2023-03-07T01:57:14;29.55;;;17.20;;
44720;SDS011;30450;52.534;13.398;2023-03-07T01:59:41;38.65;;;18.58;;
44720;SDS011;30450;52.534;13.398;2023-03-07T02:02:10;29.65;;;17.77;;
44720;SDS011;30450;52.534;13.398;2023-03-07T02:04:59;33.58;;;18.52;;
44720;SDS011;30450;52.534;13.398;2023-03-07T02:07:24;32.88;;;18.30;;
44720;SDS011;30450;52.534;13.398;2023-03-07T02:09:51;38.08;;;18.70;;
44720;SDS011;30450;52.534;13.398;2023-03-07T02:12:18;33.78;;;19.00;;
44720;SDS011;30450;52.534;13.398;2023-03-07T02:14:44;44.15;;;18.42;;
44720;SDS011;30450;52.534;13.398;2023-03-07T02:17:11;52.10;;;20.88;;
44720;SDS011;30450;52.534;13.398;2023-03-07T02:22:07;42.97;;;22.23;;
44720;SDS011;30450;52.534;13.398;2023-03-07T02:27:01;36.92;;;21.15;;
44720;SDS011;30450;52.534;13.398;2023-03-07T02:29:27;32.92;;;20.30;;
44720;SDS011;30450;52.534;13.398;2023-03-07T02:31:53;36.63;;;22.38;;
44720;SDS011;30450;52.534;13.398;2023-03-07T02:34:23;37.75;;;22.67;;
44720;SDS011;30450;52.534;13.398;2023-03-07T02:36:51;32.90;;;20.77;;
44720;SDS011;30450;52.534;13.398;2023-03-07T02:39:17;38.78;;;21.80;;
44720;SDS011;30450;52.534;13.398;2023-03-07T02:44:12;36.78;;;22.67;;
44720;SDS011;30450;52.534;13.398;2023-03-07T02:46:38;39.03;;;23.38;;
44720;SDS011;30450;52.534;13.398;2023-03-07T02:49:03;40.25;;;25.83;;
44720;SDS011;30450;52.534;13.398;2023-03-07T02:51:30;40.08;;;23.88;;
44720;SDS011;30450;52.534;13.398;2023-03-07T02:53:55;36.72;;;23.80;;
44720;SDS011;30450;52.534;13.398;2023-03-07T02:56:21;36.83;;;24.80;;
44720;SDS011;30450;52.534;13.398;2023-03-07T02:58:47;40.88;;;25.45;;
44720;SDS011;30450;52.534;13.398;2023-03-07T03:01:14;39.63;;;25.58;;
44720;SDS011;30450;52.534;13.398;2023-03-07T03:03:39;38.55;;;26.30;;
44720;SDS011;30450;52.534;13.398;2023-03-07T03:06:05;42.10;;;25.10;;
44720;SDS011;30450;52.534;13.398;2023-03-07T03:08:31;38.47;;;24.83;;
44720;SDS011;30450;52.534;13.398;2023-03-07T03:10:56;35.97;;;23.95;;
44720;SDS011;30450;52.534;13.398;2023-03-07T03:13:22;44.33;;;25.40;;
44720;SDS011;30450;52.534;13.398;2023-03-07T03:15:48;35.72;;;24.77;;
44720;SDS011;30450;52.534;13.398;2023-03-07T03:18:18;40.92;;;25.05;;
44720;SDS011;30450;52.534;13.398;2023-03-07T03:20:44;39.33;;;24.27;;
44720;SDS011;30450;52.534;13.398;2023-03-07T03:23:10;36.13;;;23.98;;
44720;SDS011;30450;52.534;13.398;2023-03-07T03:25:36;40.90;;;26.70;;
44720;SDS011;30450;52.534;13.398;2023-03-07T03:28:02;34.40;;;24.50;;
44720;SDS011;30450;52.534;13.398;2023-03-07T03:30:28;33.97;;;23.50;;
44720;SDS011;30450;52.534;13.398;2023-03-07T03:32:57;39.10;;;24.52;;
44720;SDS011;30450;52.534;13.398;2023-03-07T03:35:22;37.22;;;24.52;;
44720;SDS011;30450;52.534;13.398;2023-03-07T03:37:48;38.03;;;24.02;;
44720;SDS011;30450;52.534;13.398;2023-03-07T03:40:14;37.85;;;21.23;;
44720;SDS011;30450;52.534;13.398;2023-03-07T03:42:42;37.00;;;24.52;;
44720;SDS011;30450;52.534;13.398;2023-03-07T03:45:08;37.13;;;24.90;;
44720;SDS011;30450;52.534;13.398;2023-03-07T03:47:34;40.58;;;25.88;;
44720;SDS011;30450;52.534;13.398;2023-03-07T03:50:00;40.03;;;25.48;;
44720;SDS011;30450;52.534;13.398;2023-03-07T03:52:26;39.08;;;23.50;;
44720;SDS011;30450;52.534;13.398;2023-03-07T03:54:52;39.17;;;24.45;;
44720;SDS011;30450;52.534;13.398;2023-03-07T03:57:17;38.10;;;25.13;;
44720;SDS011;30450;52.534;13.398;2023-03-07T03:59:45;36.47;;;23.48;;
44720;SDS011;30450;52.534;13.398;2023-03-07T04:02:11;35.22;;;23.17;;
44720;SDS011;30450;52.534;13.398;2023-03-07T04:04:37;36.95;;;23.83;;
44720;SDS011;30450;52.534;13.398;2023-03-07T04:07:02;34.50;;;22.80;;
44720;SDS011;30450;52.534;13.398;2023-03-07T04:09:30;35.90;;;22.38;;
44720;SDS011;30450;52.534;13.398;2023-03-07T04:11:56;34.75;;;23.13;;
44720;SDS011;30450;52.534;13.398;2023-03-07T04:14:22;38.88;;;23.15;;
44720;SDS011;30450;52.534;13.398;2023-03-07T04:16:48;39.50;;;23.92;;
44720;SDS011;30450;52.534;13.398;2023-03-07T04:19:14;35.30;;;23.70;;
44720;SDS011;30450;52.534;13.398;2023-03-07T04:21:40;34.88;;;22.30;;
44720;SDS011;30450;52.534;13.398;2023-03-07T04:24:06;34.53;;;22.65;;
44720;SDS011;30450;52.534;13.398;2023-03-07T04:26:32;37.63;;;22.40;;
44720;SDS011;30450;52.534;13.398;2023-03-07T04:28:58;32.22;;;21.20;;
44720;SDS011;30450;52.534;13.398;2023-03-07T04:31:24;34.45;;;22.17;;
44720;SDS011;30450;52.534;13.398;2023-03-07T04:33:51;31.67;;;20.77;;
44720;SDS011;30450;52.534;13.398;2023-03-07T04:36:17;37.38;;;22.80;;
44720;SDS011;30450;52.534;13.398;2023-03-07T04:38:43;31.88;;;20.52;;
44720;SDS011;30450;52.534;13.398;2023-03-07T04:41:10;37.45;;;21.85;;
44720;SDS011;30450;52.534;13.398;2023-03-07T04:46:03;34.13;;;20.90;;
44720;SDS011;30450;52.534;13.398;2023-03-07T04:48:29;32.90;;;21.33;;
44720;SDS011;30450;52.534;13.398;2023-03-07T04:50:55;34.35;;;21.45;;
44720;SDS011;30450;52.534;13.398;2023-03-07T04:53:21;32.70;;;21.10;;
44720;SDS011;30450;52.534;13.398;2023-03-07T04:55:47;32.58;;;20.95;;
44720;SDS011;30450;52.534;13.398;2023-03-07T04:58:13;33.45;;;22.38;;
44720;SDS011;30450;52.534;13.398;2023-03-07T05:00:39;37.67;;;23.65;;
44720;SDS011;30450;52.534;13.398;2023-03-07T05:03:06;36.30;;;22.85;;
44720;SDS011;30450;52.534;13.398;2023-03-07T05:05:32;37.17;;;22.27;;
44720;SDS011;30450;52.534;13.398;2023-03-07T05:07:57;37.72;;;22.80;;
44720;SDS011;30450;52.534;13.398;2023-03-07T05:10:23;36.17;;;21.95;;
44720;SDS011;30450;52.534;13.398;2023-03-07T05:12:49;36.00;;;22.98;;
44720;SDS011;30450;52.534;13.398;2023-03-07T05:15:14;38.22;;;24.75;;
44720;SDS011;30450;52.534;13.398;2023-03-07T05:17:40;38.20;;;22.73;;
44720;SDS011;30450;52.534;13.398;2023-03-07T05:20:08;41.80;;;24.25;;
44720;SDS011;30450;52.534;13.398;2023-03-07T05:22:35;36.60;;;22.42;;
44720;SDS011;30450;52.534;13.398;2023-03-07T05:25:01;37.20;;;23.80;;
44720;SDS011;30450;52.534;13.398;2023-03-07T05:27:26;34.15;;;20.60;;
44720;SDS011;30450;52.534;13.398;2023-03-07T05:29:52;35.63;;;22.42;;
44720;SDS011;30450;52.534;13.398;2023-03-07T05:32:18;36.33;;;23.75;;
44720;SDS011;30450;52.534;13.398;2023-03-07T05:34:44;30.30;;;20.77;;
44720;SDS011;30450;52.534;13.398;2023-03-07T05:37:11;36.45;;;23.77;;
44720;SDS011;30450;52.534;13.398;2023-03-07T05:39:37;39.65;;;23.38;;
44720;SDS011;30450;52.534;13.398;2023-03-07T05:42:03;36.42;;;22.88;;
44720;SDS011;30450;52.534;13.398;2023-03-07T05:44:29;35.30;;;22.65;;
44720;SDS011;30450;52.534;13.398;2023-03-07T05:46:55;31.85;;;20.52;;
44720;SDS011;30450;52.534;13.398;2023-03-07T05:49:21;35.35;;;21.90;;
44720;SDS011;30450;52.534;13.398;2023-03-07T05:51:46;35.92;;;21.83;;
44720;SDS011;30450;52.534;13.398;2023-03-07T05:54:12;32.75;;;21.85;;
44720;SDS011;30450;52.534;13.398;2023-03-07T05:56:37;31.45;;;20.80;;
44720;SDS011;30450;52.534;13.398;2023-03-07T05:59:03;34.05;;;21.27;;
44720;SDS011;30450;52.534;13.398;2023-03-07T06:03:57;31.25;;;21.08;;
44720;SDS011;30450;52.534;13.398;2023-03-07T06:06:23;29.48;;;21.05;;
44720;SDS011;30450;52.534;13.398;2023-03-07T06:08:49;31.15;;;20.00;;
44720;SDS011;30450;52.534;13.398;2023-03-07T06:11:14;33.88;;;21.95;;
44720;SDS011;30450;52.534;13.398;2023-03-07T06:13:40;36.85;;;20.90;;
44720;SDS011;30450;52.534;13.398;2023-03-07T06:16:06;30.10;;;19.20;;
44720;SDS011;30450;52.534;13.398;2023-03-07T06:18:32;29.48;;;19.80;;
44720;SDS011;30450;52.534;13.398;2023-03-07T06:20:58;29.20;;;19.77;;
44720;SDS011;30450;52.534;13.398;2023-03-07T06:23:25;29.70;;;19.75;;
44720;SDS011;30450;52.534;13.398;2023-03-07T06:25:51;32.13;;;20.80;;
44720;SDS011;30450;52.534;13.398;2023-03-07T06:28:17;30.10;;;20.20;;
44720;SDS011;30450;52.534;13.398;2023-03-07T06:30:43;30.92;;;21.58;;
44720;SDS011;30450;52.534;13.398;2023-03-07T06:33:08;34.40;;;19.80;;
44720;SDS011;30450;52.534;13.398;2023-03-07T06:35:37;29.63;;;19.63;;
44720;SDS011;30450;52.534;13.398;2023-03-07T06:38:03;29.67;;;18.95;;
44720;SDS011;30450;52.534;13.398;2023-03-07T06:40:29;28.50;;;18.98;;
44720;SDS011;30450;52.534;13.398;2023-03-07T06:42:54;33.63;;;21.00;;
44720;SDS011;30450;52.534;13.398;2023-03-07T06:45:20;28.05;;;18.45;;
44720;SDS011;30450;52.534;13.398;2023-03-07T06:47:46;28.67;;;19.35;;
44720;SDS011;30450;52.534;13.398;2023-03-07T06:50:11;28.15;;;19.30;;
44720;SDS011;30450;52.534;13.398;2023-03-07T06:52:37;30.33;;;19.27;;
44720;SDS011;30450;52.534;13.398;2023-03-07T06:55:03;29.48;;;18.75;;
44720;SDS011;30450;52.534;13.398;2023-03-07T06:57:29;27.63;;;17.92;;
44720;SDS011;30450;52.534;13.398;2023-03-07T06:59:55;37.72;;;19.50;;
44720;SDS011;30450;52.534;13.398;2023-03-07T07:02:20;26.98;;;18.55;;
44720;SDS011;30450;52.534;13.398;2023-03-07T07:04:46;25.95;;;18.33;;
44720;SDS011;30450;52.534;13.398;2023-03-07T07:07:12;29.05;;;19.00;;
44720;SDS011;30450;52.534;13.398;2023-03-07T07:09:37;27.40;;;17.52;;
44720;SDS011;30450;52.534;13.398;2023-03-07T07:12:03;27.80;;;18.88;;
44720;SDS011;30450;52.534;13.398;2023-03-07T07:14:30;24.97;;;16.43;;
44720;SDS011;30450;52.534;13.398;2023-03-07T07:16:57;28.98;;;18.92;;
44720;SDS011;30450;52.534;13.398;2023-03-07T07:19:23;26.15;;;16.80;;
44720;SDS011;30450;52.534;13.398;2023-03-07T07:21:51;23.38;;;16.30;;
44720;SDS011;30450;52.534;13.398;2023-03-07T07:24:17;27.00;;;17.15;;
44720;SDS011;30450;52.534;13.398;2023-03-07T07:26:43;23.80;;;17.30;;
44720;SDS011;30450;52.534;13.398;2023-03-07T07:29:09;25.65;;;16.30;;
44720;SDS011;30450;52.534;13.398;2023-03-07T07:31:36;26.02;;;16.52;;
44720;SDS011;30450;52.534;13.398;2023-03-07T07:34:02;24.23;;;16.25;;
44720;SDS011;30450;52.534;13.398;2023-03-07T07:36:28;27.13;;;17.45;;
44720;SDS011;30450;52.534;13.398;2023-03-07T07:38:54;22.23;;;15.02;;
44720;SDS011;30450;52.534;13.398;2023-03-07T07:41:20;22.70;;;17.42;;
44720;SDS011;30450;52.534;13.398;2023-03-07T07:43:45;25.83;;;17.33;;
44720;SDS011;30450;52.534;13.398;2023-03-07T07:46:13;26.20;;;16.13;;
44720;SDS011;30450;52.534;13.398;2023-03-07T07:48:39;19.10;;;14.60;;
44720;SDS011;30450;52.534;13.398;2023-03-07T07:51:05;23.38;;;16.40;;
44720;SDS011;30450;52.534;13.398;2023-03-07T07:53:31;22.50;;;16.27;;
44720;SDS011;30450;52.534;13.398;2023-03-07T07:55:57;22.20;;;15.30;;
44720;SDS011;30450;52.534;13.398;2023-03-07T07:58:23;23.73;;;16.17;;
44720;SDS011;30450;52.534;13.398;2023-03-07T08:00:49;26.20;;;17.40;;
44720;SDS011;30450;52.534;13.398;2023-03-07T08:03:15;23.27;;;15.27;;
44720;SDS011;30450;52.534;13.398;2023-03-07T08:05:44;23.80;;;16.65;;
44720;SDS011;30450;52.534;13.398;2023-03-07T08:08:16;23.05;;;15.77;;
44720;SDS011;30450;52.534;13.398;2023-03-07T08:10:42;26.13;;;15.73;;
44720;SDS011;30450;52.534;13.398;2023-03-07T08:13:15;25.70;;;16.67;;
44720;SDS011;30450;52.534;13.398;2023-03-07T08:15:41;24.00;;;15.40;;
44720;SDS011;30450;52.534;13.398;2023-03-07T08:18:06;20.58;;;14.20;;
44720;SDS011;30450;52.534;13.398;2023-03-07T08:20:32;19.25;;;13.68;;
44720;SDS011;30450;52.534;13.398;2023-03-07T08:22:58;23.17;;;14.73;;
44720;SDS011;30450;52.534;13.398;2023-03-07T08:25:24;18.17;;;13.50;;
44720;SDS011;30450;52.534;13.398;2023-03-07T08:27:50;21.27;;;14.70;;
44720;SDS011;30450;52.534;13.398;2023-03-07T08:30:23;24.35;;;15.85;;
44720;SDS011;30450;52.534;13.398;2023-03-07T08:32:49;20.08;;;13.75;;
44720;SDS011;30450;52.534;13.398;2023-03-07T08:35:16;22.58;;;14.77;;
44720;SDS011;30450;52.534;13.398;2023-03-07T08:37:42;23.65;;;15.00;;
44720;SDS011;30450;52.534;13.398;2023-03-07T08:40:08;18.83;;;14.60;;
44720;SDS011;30450;52.534;13.398;2023-03-07T08:42:34;21.95;;;14.90;;
44720;SDS011;30450;52.534;13.398;2023-03-07T08:44:59;20.00;;;13.57;;
44720;SDS011;30450;52.534;13.398;2023-03-07T08:47:25;22.67;;;14.18;;
44720;SDS011;30450;52.534;13.398;2023-03-07T08:49:51;20.90;;;15.05;;
44720;SDS011;30450;52.534;13.398;2023-03-07T08:52:17;19.98;;;13.80;;
44720;SDS011;30450;52.534;13.398;2023-03-07T08:54:43;26.30;;;16.02;;
44720;SDS011;30450;52.534;13.398;2023-03-07T08:57:08;17.92;;;13.07;;
44720;SDS011;30450;52.534;13.398;2023-03-07T08:59:34;19.10;;;13.25;;
44720;SDS011;30450;52.534;13.398;2023-03-07T09:02:00;19.42;;;14.63;;
44720;SDS011;30450;52.534;13.398;2023-03-07T09:04:26;19.95;;;13.57;;
44720;SDS011;30450;52.534;13.398;2023-03-07T09:06:51;20.05;;;13.75;;
44720;SDS011;30450;52.534;13.398;2023-03-07T09:09:17;22.02;;;13.63;;
44720;SDS011;30450;52.534;13.398;2023-03-07T09:11:43;22.08;;;13.13;;
44720;SDS011;30450;52.534;13.398;2023-03-07T09:14:09;21.77;;;14.27;;
44720;SDS011;30450;52.534;13.398;2023-03-07T09:16:35;16.33;;;12.25;;
44720;SDS011;30450;52.534;13.398;2023-03-07T09:19:00;17.35;;;11.82;;
44720;SDS011;30450;52.534;13.398;2023-03-07T09:21:26;20.50;;;12.90;;
44720;SDS011;30450;52.534;13.398;2023-03-07T09:23:52;17.67;;;11.82;;
44720;SDS011;30450;52.534;13.398;2023-03-07T09:26:17;16.30;;;11.95;;
44720;SDS011;30450;52.534;13.398;2023-03-07T09:28:43;17.55;;;11.38;;
44720;SDS011;30450;52.534;13.398;2023-03-07T09:31:11;20.02;;;11.93;;
44720;SDS011;30450;52.534;13.398;2023-03-07T09:33:37;24.55;;;12.18;;
44720;SDS011;30450;52.534;13.398;2023-03-07T09:36:06;18.05;;;11.60;;
44720;SDS011;30450;52.534;13.398;2023-03-07T09:38:32;15.38;;;10.75;;
44720;SDS011;30450;52.534;13.398;2023-03-07T09:41:04;15.25;;;11.68;;
44720;SDS011;30450;52.534;13.398;2023-03-07T09:43:38;13.43;;;10.45;;
44720;SDS011;30450;52.534;13.398;2023-03-07T09:46:13;13.07;;;10.00;;
44720;SDS011;30450;52.534;13.398;2023-03-07T09:48:56;14.85;;;10.77;;
44720;SDS011;30450;52.534;13.398;2023-03-07T09:51:35;13.00;;;10.45;;
44720;SDS011;30450;52.534;13.398;2023-03-07T09:56:31;13.75;;;10.10;;
44720;SDS011;30450;52.534;13.398;2023-03-07T09:59:02;12.05;;;9.27;;
44720;SDS011;30450;52.534;13.398;2023-03-07T10:01:29;13.43;;;9.73;;
44720;SDS011;30450;52.534;13.398;2023-03-07T10:03:59;11.07;;;8.70;;
44720;SDS011;30450;52.534;13.398;2023-03-07T10:06:40;12.18;;;9.52;;
44720;SDS011;30450;52.534;13.398;2023-03-07T10:09:10;10.75;;;7.70;;
44720;SDS011;30450;52.534;13.398;2023-03-07T10:16:49;12.05;;;8.20;;
44720;SDS011;30450;52.534;13.398;2023-03-07T10:27:09;11.38;;;8.32;;
44720;SDS011;30450;52.534;13.398;2023-03-07T10:32:11;9.13;;;6.65;;
44720;SDS011;30450;52.534;13.398;2023-03-07T10:34:40;10.00;;;6.30;;
44720;SDS011;30450;52.534;13.398;2023-03-07T10:37:11;8.55;;;6.55;;
44720;SDS011;30450;52.534;13.398;2023-03-07T10:42:03;6.22;;;4.65;;
44720;SDS011;30450;52.534;13.398;2023-03-07T10:44:30;8.82;;;4.95;;
44720;SDS011;30450;52.534;13.398;2023-03-07T10:46:57;5.85;;;4.00;;
44720;SDS011;30450;52.534;13.398;2023-03-07T10:49:30;5.50;;;2.42;;
44720;SDS011;30450;52.534;13.398;2023-03-07T10:51:58;5.28;;;2.33;;
44720;SDS011;30450;52.534;13.398;2023-03-07T10:54:29;8.10;;;2.40;;
44720;SDS011;30450;52.534;13.398;2023-03-07T10:57:02;4.28;;;2.00;;
44720;SDS011;30450;52.534;13.398;2023-03-07T10:59:29;5.35;;;2.60;;
44720;SDS011;30450;52.534;13.398;2023-03-07T11:01:58;4.15;;;2.20;;
44720;SDS011;30450;52.534;13.398;2023-03-07T11:04:25;3.70;;;2.63;;
44720;SDS011;30450;52.534;13.398;2023-03-07T11:09:24;4.72;;;3.08;;
44720;SDS011;30450;52.534;13.398;2023-03-07T11:11:58;3.10;;;2.70;;
44720;SDS011;30450;52.534;13.398;2023-03-07T11:14:24;6.20;;;2.90;;
44720;SDS011;30450;52.534;13.398;2023-03-07T11:16:55;4.63;;;2.90;;
44720;SDS011;30450;52.534;13.398;2023-03-07T11:19:41;4.15;;;2.83;;
44720;SDS011;30450;52.534;13.398;2023-03-07T11:24:40;4.30;;;3.00;;
44720;SDS011;30450;52.534;13.398;2023-03-07T11:27:18;4.40;;;2.35;;
44720;SDS011;30450;52.534;13.398;2023-03-07T11:29:46;4.72;;;2.95;;
44720;SDS011;30450;52.534;13.398;2023-03-07T11:32:29;6.13;;;2.67;;
44720;SDS011;30450;52.534;13.398;2023-03-07T11:35:01;4.25;;;2.15;;
44720;SDS011;30450;52.534;13.398;2023-03-07T11:37:28;4.80;;;2.25;;
44720;SDS011;30450;52.534;13.398;2023-03-07T11:40:02;5.47;;;2.25;;
44720;SDS011;30450;52.534;13.398;2023-03-07T11:42:32;3.22;;;2.33;;
44720;SDS011;30450;52.534;13.398;2023-03-07T11:45:01;4.18;;;2.80;;
44720;SDS011;30450;52.534;13.398;2023-03-07T11:50:06;4.95;;;2.28;;
44720;SDS011;30450;52.534;13.398;2023-03-07T12:05:27;5.07;;;2.25;;
44720;SDS011;30450;52.534;13.398;2023-03-07T12:08:06;2.90;;;1.80;;
44720;SDS011;30450;52.534;13.398;2023-03-07T12:13:17;3.35;;;1.50;;
44720;SDS011;30450;52.534;13.398;2023-03-07T12:18:28;3.47;;;1.63;;
44720;SDS011;30450;52.534;13.398;2023-03-07T12:23:28;4.15;;;1.40;;
44720;SDS011;30450;52.534;13.398;2023-03-07T12:25:59;4.93;;;1.63;;
44720;SDS011;30450;52.534;13.398;2023-03-07T12:28:32;3.78;;;1.48;;
44720;SDS011;30450;52.534;13.398;2023-03-07T12:31:06;2.08;;;1.33;;
44720;SDS011;30450;52.534;13.398;2023-03-07T12:36:05;4.05;;;1.50;;
44720;SDS011;30450;52.534;13.398;2023-03-07T12:41:09;1.92;;;0.80;;
44720;SDS011;30450;52.534;13.398;2023-03-07T12:43:45;3.40;;;1.10;;
44720;SDS011;30450;52.534;13.398;2023-03-07T12:51:47;2.17;;;1.05;;
44720;SDS011;30450;52.534;13.398;2023-03-07T12:54:17;3.17;;;1.27;;
44720;SDS011;30450;52.534;13.398;2023-03-07T12:57:01;3.75;;;1.30;;
44720;SDS011;30450;52.534;13.398;2023-03-07T12:59:28;4.82;;;1.48;;
44720;SDS011;30450;52.534;13.398;2023-03-07T13:02:05;3.85;;;1.10;;
44720;SDS011;30450;52.534;13.398;2023-03-07T13:04:36;3.55;;;1.08;;
44720;SDS011;30450;52.534;13.398;2023-03-07T13:07:10;4.07;;;1.25;;
44720;SDS011;30450;52.534;13.398;2023-03-07T13:09:41;2.90;;;1.10;;
44720;SDS011;30450;52.534;13.398;2023-03-07T13:14:54;3.55;;;1.20;;
44720;SDS011;30450;52.534;13.398;2023-03-07T13:19:56;5.18;;;1.35;;
44720;SDS011;30450;52.534;13.398;2023-03-07T13:22:54;2.00;;;1.40;;
44720;SDS011;30450;52.534;13.398;2023-03-07T13:27:53;4.68;;;1.13;;
44720;SDS011;30450;52.534;13.398;2023-03-07T13:30:19;4.95;;;1.52;;
44720;SDS011;30450;52.534;13.398;2023-03-07T13:37:53;3.45;;;1.58;;
44720;SDS011;30450;52.534;13.398;2023-03-07T13:40:25;5.10;;;1.60;;
44720;SDS011;30450;52.534;13.398;2023-03-07T13:42:51;2.60;;;1.27;;
44720;SDS011;30450;52.534;13.398;2023-03-07T13:48:01;3.35;;;1.23;;
44720;SDS011;30450;52.534;13.398;2023-03-07T13:52:58;3.22;;;1.27;;
44720;SDS011;30450;52.534;13.398;2023-03-07T13:55:25;2.17;;;0.90;;
44720;SDS011;30450;52.534;13.398;2023-03-07T13:57:51;5.57;;;1.73;;
44720;SDS011;30450;52.534;13.398;2023-03-07T14:00:20;2.53;;;1.70;;
44720;SDS011;30450;52.534;13.398;2023-03-07T14:02:47;2.75;;;1.52;;
44720;SDS011;30450;52.534;13.398;2023-03-07T14:05:13;5.38;;;1.40;;
44720;SDS011;30450;52.534;13.398;2023-03-07T14:07:39;1.90;;;1.20;;
44720;SDS011;30450;52.534;13.398;2023-03-07T14:10:26;2.90;;;1.20;;
44720;SDS011;30450;52.534;13.398;2023-03-07T14:15:59;1.10;;;0.70;;
44720;SDS011;30450;52.534;13.398;2023-03-07T14:18:37;5.05;;;1.40;;
44720;SDS011;30450;52.534;13.398;2023-03-07T14:21:10;6.97;;;1.25;;
44720;SDS011;30450;52.534;13.398;2023-03-07T14:27:09;2.47;;;1.13;;
44720;SDS011;30450;52.534;13.398;2023-03-07T14:29:15;2.20;;;1.35;;
44720;SDS011;30450;52.534;13.398;2023-03-07T14:31:42;2.38;;;1.48;;
44720;SDS011;30450;52.534;13.398;2023-03-07T14:34:15;1.95;;;1.42;;
44720;SDS011;30450;52.534;13.398;2023-03-07T14:36:41;1.80;;;1.05;;
44720;SDS011;30450;52.534;13.398;2023-03-07T14:39:09;3.00;;;1.60;;
44720;SDS011;30450;52.534;13.398;2023-03-07T14:41:46;2.10;;;1.27;;
44720;SDS011;30450;52.534;13.398;2023-03-07T14:44:29;2.63;;;1.30;;
44720;SDS011;30450;52.534;13.398;2023-03-07T14:47:00;2.88;;;1.10;;
44720;SDS011;30450;52.534;13.398;2023-03-07T14:51:59;2.15;;;1.10;;
44720;SDS011;30450;52.534;13.398;2023-03-07T14:54:27;7.03;;;1.10;;
44720;SDS011;30450;52.534;13.398;2023-03-07T14:56:55;1.45;;;1.00;;
44720;SDS011;30450;52.534;13.398;2023-03-07T14:59:21;2.58;;;1.20;;
44720;SDS011;30450;52.534;13.398;2023-03-07T15:01:47;4.15;;;1.63;;
44720;SDS011;30450;52.534;13.398;2023-03-07T15:04:24;7.30;;;1.92;;
44720;SDS011;30450;52.534;13.398;2023-03-07T15:06:56;4.55;;;1.73;;
44720;SDS011;30450;52.534;13.398;2023-03-07T15:09:22;3.85;;;1.40;;
44720;SDS011;30450;52.534;13.398;2023-03-07T15:17:16;4.15;;;1.00;;
44720;SDS011;30450;52.534;13.398;2023-03-07T15:19:44;3.40;;;1.50;;
44720;SDS011;30450;52.534;13.398;2023-03-07T15:22:18;2.75;;;1.38;;
44720;SDS011;30450;52.534;13.398;2023-03-07T15:24:48;2.50;;;1.52;;
44720;SDS011;30450;52.534;13.398;2023-03-07T15:27:16;2.25;;;1.23;;
44720;SDS011;30450;52.534;13.398;2023-03-07T15:29:46;5.10;;;1.88;;
44720;SDS011;30450;52.534;13.398;2023-03-07T15:32:30;2.92;;;1.38;;
44720;SDS011;30450;52.534;13.398;2023-03-07T15:35:10;2.97;;;1.33;;
44720;SDS011;30450;52.534;13.398;2023-03-07T15:37:56;3.63;;;1.63;;
44720;SDS011;30450;52.534;13.398;2023-03-07T15:42:58;5.32;;;1.92;;
44720;SDS011;30450;52.534;13.398;2023-03-07T15:45:38;3.50;;;1.73;;
44720;SDS011;30450;52.534;13.398;2023-03-07T15:48:15;2.92;;;1.85;;
44720;SDS011;30450;52.534;13.398;2023-03-07T15:50:49;2.13;;;1.63;;
44720;SDS011;30450;52.534;13.398;2023-03-07T15:53:18;2.70;;;1.70;;
44720;SDS011;30450;52.534;13.398;2023-03-07T15:55:52;2.42;;;1.30;;
44720;SDS011;30450;52.534;13.398;2023-03-07T15:58:19;2.60;;;1.40;;
44720;SDS011;30450;52.534;13.398;2023-03-07T16:00:47;3.35;;;1.30;;
44720;SDS011;30450;52.534;13.398;2023-03-07T16:03:46;2.92;;;1.00;;
44720;SDS011;30450;52.534;13.398;2023-03-07T16:06:22;2.15;;;1.52;;
44720;SDS011;30450;52.534;13.398;2023-03-07T16:08:50;2.35;;;1.23;;
44720;SDS011;30450;52.534;13.398;2023-03-07T16:11:17;2.20;;;1.45;;
44720;SDS011;30450;52.534;13.398;2023-03-07T16:13:43;3.17;;;1.20;;
44720;SDS011;30450;52.534;13.398;2023-03-07T16:18:37;1.30;;;1.20;;